Mc Neill, Mississippi
Current Conditions -  °F | °C
As of 5:50 PM on Saturday 20 Dec 2014 (Local Time) from KHSA Reporting Station
Overcast Overcast  
Wind Chill: 52°   Ceiling: 1100
Heat Index: 52°   Visibility: 7mi
Dew Point: 45°   Wind: 12mph
Humidity: 76%   Direction: 20°NNE
Pressure: 30.14"   Gusts: NA
Location:  30.6637°N, 89.6342°W
Report Text: KHSA 202350Z 02010KT 7SM OVC011 11/07 A3014
Loading
Personal Weather Stations






























Interactive Weather Map New forecast layout! Learn more

10-Day Weather Forecast

Advertisements
Track Severe Weather on mobile